x

Boston 16 Nm East Of Boston, Ma (44013) Wave Buoy

1:50pm - Tue 3rd May 2016 All times are EDT. -4 hours from GMT.

  • Sig Wave height 2.3ft
  • Swell Direction
  • Peak Period 9s
  • Average Period 6s
  • Wind
    7mph, 9mph gusts
  • Sea Temp 48°f
  • 空気 Temp 46°f
  • Sea Pressure 1011.2mb
  • Boston 16 Nm East Of Boston, Ma
  • Boston 16 Nm East Of Boston, Ma

More Historic Weather Station data

Upgrade to MSW Pro to gain access to the past 30 days of data for over 8000 Wavebouys and Weather Stations around the globe.

Join Pro

Comparision Forecast

View Surf forecast
   
Tue 05/03 1:50pm 2.5ft 9s 6s 7 9 mph 1011.2mb 48f 46f
12:50pm 2.5ft 8s 6s 4
mph
1011.6mb 48f 45f
11:50am 2.5ft 8s 6s 2
mph
1012.6mb 47f 46f
10:50am 2.5ft 7s 6s 4
mph
1012.5mb 47f 45f
8:50am 2.5ft 7s 6s 4 7 mph 1012.7mb 47f 46f
7:50am 3ft 8s 6s 4
mph
1012.7mb 47f 46f
6:50am 3ft 8s 6s 4 7 mph 1012.9mb 47f 46f
5:50am 3ft 6s 6s 2
mph
1013mb 47f 46f
4:50am 3.5ft 6s 6s 2
mph
1013mb 47f 46f
3:50am 3.5ft 8s 5s 11
mph
1012.3mb 47f 46f
2:50am 3ft 8s 6s 7
mph
1012.9mb 47f 46f
1:50am 3.5ft 8s 6s 9
mph
1013.3mb 47f 47f
12:50am 3ft 8s 5s 7
mph
1013.1mb 47f 46f
Mon 05/02 11:50pm 3.5ft 9s 5s 9 11 mph 1012.9mb 47f 46f
10:50pm 3.5ft 9s 5s 9 13 mph 1013.3mb 47f 46f
9:50pm 4ft 8s 5s 11 13 mph 1013.1mb 47f 46f
8:50pm 3.5ft 7s 5s 18 20 mph 1012.5mb 47f 46f
7:50pm 4ft 8s 5s 20 25 mph 1011.7mb 47f 46f
6:50pm 4ft 8s 6s 9 11 mph 1011.1mb 47f 47f
5:50pm 3.5ft 7s 6s 11 13 mph 1010.5mb 47f 47f
4:50pm 3.5ft 7s 6s 2
mph
1010.4mb 47f 47f
3:50pm 3.5ft 9s 5s 7
mph
1010.8mb 47f 47f
2:50pm 3ft 8s 6s 9 11 mph 1011.6mb 47f 47f
1:50pm 2.5ft 8s 6s 13 16 mph 1012.3mb 47f 47f
12:50pm 2.5ft 8s 6s 4 7 mph 1014.1mb 47f 47f
11:50am 2ft 8s 5s 9 11 mph 1014mb 47f 47f
10:50am 2.5ft 9s 5s 9
mph
1015.1mb 47f 47f
9:50am 2.5ft 9s 5s 9
mph
1015.7mb 47f 47f
8:50am 2.5ft 8s 5s 11 13 mph 1016.1mb 47f 46f
7:50am 3ft 9s 5s 13 16 mph 1016.5mb 47f 46f
6:50am 3ft 8s 5s 11 13 mph 1017mb 47f 46f
5:50am 3ft 9s 5s 13 16 mph 1016.4mb 47f 46f
4:50am 3.5ft 8s 6s 13 16 mph 1016.6mb 47f 46f
3:50am 3.5ft 10s 6s 11
mph
1017.4mb 47f 46f
2:50am 2.5ft 11s 6s 11 13 mph 1017.6mb 47f 46f
1:50am 3ft 10s 6s 13 16 mph 1018mb 47f 46f
12:50am 3.5ft 10s 7s 9 11 mph 1019.1mb 47f 46f
Sun 05/01 11:50pm 3.5ft 10s 7s 9 11 mph 1019.5mb 47f 45f
10:50pm 3ft 10s 6s 7
mph
1020.2mb 47f 45f
9:50pm 3ft 10s 7s  -  2 mph 1020.9mb 47f 44f
8:50pm 3.5ft 10s 6s 7
mph
1021.2mb 47f 45f
7:50pm 3.5ft 9s 6s 9 13 mph 1021.6mb 47f 46f
6:50pm 2.5ft 10s 6s 11 13 mph 1021.5mb 47f 47f
5:50pm 3.5ft 10s 7s 11 13 mph 1021.9mb 47f 46f
4:50pm 3.5ft 10s 6s 9 11 mph 1022.2mb 47f 47f
3:50pm 3.5ft 9s 6s 11 13 mph 1022.7mb 47f 47f
2:50pm 3.5ft 10s 6s 11 13 mph 1023mb 47f 48f
1:50pm 3ft 9s 5s 11 13 mph 1023.1mb 47f 48f
12:50pm 2.5ft 7s 5s 11 13 mph 1023.3mb 47f 47f
11:50am 2.5ft 8s 5s 13 16 mph 1023.6mb 47f 47f
10:50am 1.6ft 8s 5s 13 16 mph 1023.4mb 47f 47f
9:50am 1.6ft 8s 7s 11 13 mph 1023.8mb 47f 47f
8:50am 2ft 8s 6s 9
mph
1023.9mb 46f 46f
7:50am 1.6ft 9s 6s 7 9 mph 1023.8mb 46f 46f
6:50am 2ft 8s 6s 7 9 mph 1023.5mb 46f 46f
5:50am 2ft 8s 5s 7 9 mph 1023mb 46f 45f
4:50am 2ft 8s 5s 4
mph
1022.8mb 46f 45f
3:50am 2ft 7s 5s 4 7 mph 1023mb 46f 45f
2:50am 1.6ft 6s 5s 7 9 mph 1022.9mb 46f 46f
1:50am 2ft 7s 5s 7 9 mph 1023.2mb 47f 46f
12:50am 1.6ft 7s 4s 11 13 mph 1023.9mb 47f 46f
Sat 04/30 11:50pm 1.6ft 7s 4s 11 16 mph 1023.8mb 47f 46f
10:50pm 2ft 4s 4s 13 16 mph 1023.4mb 47f 47f
9:50pm 2ft 3s 4s 13 16 mph 1023.7mb 47f 48f
8:50pm 2.5ft 4s 4s 16 18 mph 1023.3mb 47f 48f
7:50pm 2ft 3s 4s 16 20 mph 1022.7mb 47f 47f
6:50pm 2ft 3s 4s 13 18 mph 1022.4mb 47f 47f
5:50pm 2ft 3s 4s 16 18 mph 1022.7mb 47f 47f
4:50pm 2.5ft 5s 4s 16 18 mph 1022.4mb 47f 47f
3:50pm 2ft 6s 4s 16 18 mph 1022.5mb 47f 47f
2:50pm 1.6ft 5s 5s 13 16 mph 1022.5mb 47f 46f
1:50pm 1.6ft 9s 5s 11
mph
1022.7mb 47f 46f
12:50pm 1.3ft 9s 6s 9 11 mph 1022.2mb 48f 46f
11:50am 1.3ft 9s 6s 11
mph
1022.7mb 47f 47f
10:50am 1.3ft 9s 5s 7
mph
1023.2mb 47f 46f
8:50am 1.3ft 10s 5s 4
mph
1023.2mb 46f 46f
7:50am 1.6ft 5s 5s 4 7 mph 1022.7mb 46f 46f
6:50am 2ft 5s 4s 4 7 mph 1022mb 46f 46f
5:50am 2ft 5s 5s 4 7 mph 1020.6mb 46f 45f
4:50am 2ft 5s 5s 4 7 mph 1020.8mb 46f 45f
3:50am 2.5ft 5s 5s 7
mph
1021.2mb 46f 45f
2:50am 2.5ft 5s 5s 7 9 mph 1021.1mb 46f 45f
1:50am 2.5ft 5s 4s 9
mph
1021.3mb 46f 45f
12:50am 2.5ft 5s 4s 7
mph
1021.1mb 46f 45f
Fri 04/29 11:50pm 2.5ft 10s 4s 7 9 mph 1020.9mb 46f 45f
10:50pm 2.5ft 4s 4s 13 16 mph 1020.6mb 47f 45f
9:50pm 3ft 4s 4s 16 18 mph 1020.1mb 46f 45f
8:50pm 3ft 4s 4s 18 20 mph 1019.9mb 46f 45f
7:50pm 2.5ft 4s 4s 16 18 mph 1019.5mb 46f 45f